sensor_id;sensor_type;location;lat;lon;timestamp;P1;durP1;ratioP1;P2;durP2;ratioP2
75061;SDS011;63641;46.526;24.612;2023-09-18T00:00:29;5.80;;;5.25;;
75061;SDS011;63641;46.526;24.612;2023-09-18T00:02:57;7.30;;;5.40;;
75061;SDS011;63641;46.526;24.612;2023-09-18T00:05:24;6.50;;;5.72;;
75061;SDS011;63641;46.526;24.612;2023-09-18T00:07:51;6.10;;;5.35;;
75061;SDS011;63641;46.526;24.612;2023-09-18T00:10:18;5.78;;;5.28;;
75061;SDS011;63641;46.526;24.612;2023-09-18T00:12:45;7.05;;;4.97;;
75061;SDS011;63641;46.526;24.612;2023-09-18T00:15:13;9.05;;;5.72;;
75061;SDS011;63641;46.526;24.612;2023-09-18T00:17:39;7.20;;;5.00;;
75061;SDS011;63641;46.526;24.612;2023-09-18T00:20:06;6.85;;;5.50;;
75061;SDS011;63641;46.526;24.612;2023-09-18T00:22:33;8.00;;;5.43;;
75061;SDS011;63641;46.526;24.612;2023-09-18T00:25:00;5.90;;;5.25;;
75061;SDS011;63641;46.526;24.612;2023-09-18T00:27:30;6.05;;;5.32;;
75061;SDS011;63641;46.526;24.612;2023-09-18T00:29:59;6.90;;;5.85;;
75061;SDS011;63641;46.526;24.612;2023-09-18T00:32:25;6.60;;;5.45;;
75061;SDS011;63641;46.526;24.612;2023-09-18T00:34:54;6.30;;;5.63;;
75061;SDS011;63641;46.526;24.612;2023-09-18T00:37:22;6.25;;;5.65;;
75061;SDS011;63641;46.526;24.612;2023-09-18T00:39:49;8.90;;;6.22;;
75061;SDS011;63641;46.526;24.612;2023-09-18T00:42:16;6.85;;;5.63;;
75061;SDS011;63641;46.526;24.612;2023-09-18T00:44:44;6.30;;;5.60;;
75061;SDS011;63641;46.526;24.612;2023-09-18T00:47:11;6.20;;;5.60;;
75061;SDS011;63641;46.526;24.612;2023-09-18T00:49:40;6.90;;;5.80;;
75061;SDS011;63641;46.526;24.612;2023-09-18T00:52:09;7.25;;;5.65;;
75061;SDS011;63641;46.526;24.612;2023-09-18T00:54:37;6.47;;;5.70;;
75061;SDS011;63641;46.526;24.612;2023-09-18T00:57:07;6.40;;;5.30;;
75061;SDS011;63641;46.526;24.612;2023-09-18T00:59:36;5.97;;;5.30;;
75061;SDS011;63641;46.526;24.612;2023-09-18T01:02:03;7.78;;;6.15;;
75061;SDS011;63641;46.526;24.612;2023-09-18T01:04:30;7.03;;;6.32;;
75061;SDS011;63641;46.526;24.612;2023-09-18T01:07:00;6.68;;;5.97;;
75061;SDS011;63641;46.526;24.612;2023-09-18T01:09:30;6.85;;;5.93;;
75061;SDS011;63641;46.526;24.612;2023-09-18T01:12:13;6.90;;;6.18;;
75061;SDS011;63641;46.526;24.612;2023-09-18T01:17:41;6.72;;;5.80;;
75061;SDS011;63641;46.526;24.612;2023-09-18T01:20:09;6.13;;;5.63;;
75061;SDS011;63641;46.526;24.612;2023-09-18T01:22:37;6.40;;;5.80;;
75061;SDS011;63641;46.526;24.612;2023-09-18T01:25:03;7.50;;;5.82;;
75061;SDS011;63641;46.526;24.612;2023-09-18T01:27:32;6.28;;;5.65;;
75061;SDS011;63641;46.526;24.612;2023-09-18T01:29:59;6.88;;;6.13;;
75061;SDS011;63641;46.526;24.612;2023-09-18T01:32:27;7.95;;;6.05;;
75061;SDS011;63641;46.526;24.612;2023-09-18T01:34:57;6.45;;;5.78;;
75061;SDS011;63641;46.526;24.612;2023-09-18T01:37:27;7.88;;;5.72;;
75061;SDS011;63641;46.526;24.612;2023-09-18T01:39:56;6.63;;;6.03;;
75061;SDS011;63641;46.526;24.612;2023-09-18T01:42:26;8.25;;;5.85;;
75061;SDS011;63641;46.526;24.612;2023-09-18T01:44:53;6.38;;;5.78;;
75061;SDS011;63641;46.526;24.612;2023-09-18T01:47:21;6.90;;;6.25;;
75061;SDS011;63641;46.526;24.612;2023-09-18T01:49:53;8.23;;;5.90;;
75061;SDS011;63641;46.526;24.612;2023-09-18T01:52:20;7.22;;;6.40;;
75061;SDS011;63641;46.526;24.612;2023-09-18T01:54:48;7.07;;;5.95;;
75061;SDS011;63641;46.526;24.612;2023-09-18T01:57:15;6.28;;;5.15;;
75061;SDS011;63641;46.526;24.612;2023-09-18T01:59:42;7.63;;;6.38;;
75061;SDS011;63641;46.526;24.612;2023-09-18T02:02:10;6.95;;;6.25;;
75061;SDS011;63641;46.526;24.612;2023-09-18T02:04:44;7.13;;;6.43;;
75061;SDS011;63641;46.526;24.612;2023-09-18T02:07:31;9.73;;;6.70;;
75061;SDS011;63641;46.526;24.612;2023-09-18T02:09:58;7.00;;;6.32;;
75061;SDS011;63641;46.526;24.612;2023-09-18T02:12:25;7.50;;;6.30;;
75061;SDS011;63641;46.526;24.612;2023-09-18T02:14:52;6.28;;;5.68;;
75061;SDS011;63641;46.526;24.612;2023-09-18T02:17:19;6.32;;;5.68;;
75061;SDS011;63641;46.526;24.612;2023-09-18T02:19:47;11.10;;;5.60;;
75061;SDS011;63641;46.526;24.612;2023-09-18T02:22:13;6.30;;;5.35;;
75061;SDS011;63641;46.526;24.612;2023-09-18T02:24:40;7.30;;;5.75;;
75061;SDS011;63641;46.526;24.612;2023-09-18T02:27:07;6.85;;;6.20;;
75061;SDS011;63641;46.526;24.612;2023-09-18T02:29:34;7.22;;;6.53;;
75061;SDS011;63641;46.526;24.612;2023-09-18T02:32:01;6.50;;;5.88;;
75061;SDS011;63641;46.526;24.612;2023-09-18T02:34:28;6.28;;;5.68;;
75061;SDS011;63641;46.526;24.612;2023-09-18T02:36:55;7.78;;;5.68;;
75061;SDS011;63641;46.526;24.612;2023-09-18T02:39:22;6.10;;;5.50;;
75061;SDS011;63641;46.526;24.612;2023-09-18T02:41:49;7.65;;;6.82;;
75061;SDS011;63641;46.526;24.612;2023-09-18T02:44:15;8.65;;;6.53;;
75061;SDS011;63641;46.526;24.612;2023-09-18T02:46:42;6.72;;;6.13;;
75061;SDS011;63641;46.526;24.612;2023-09-18T02:49:12;6.72;;;6.10;;
75061;SDS011;63641;46.526;24.612;2023-09-18T02:51:39;6.75;;;5.88;;
75061;SDS011;63641;46.526;24.612;2023-09-18T02:54:06;6.70;;;6.10;;
75061;SDS011;63641;46.526;24.612;2023-09-18T02:56:32;8.00;;;6.88;;
75061;SDS011;63641;46.526;24.612;2023-09-18T02:58:59;6.72;;;6.07;;
75061;SDS011;63641;46.526;24.612;2023-09-18T03:01:26;6.30;;;5.75;;
75061;SDS011;63641;46.526;24.612;2023-09-18T03:03:53;6.50;;;5.90;;
75061;SDS011;63641;46.526;24.612;2023-09-18T03:06:20;6.22;;;5.68;;
75061;SDS011;63641;46.526;24.612;2023-09-18T03:08:46;6.10;;;5.50;;
75061;SDS011;63641;46.526;24.612;2023-09-18T03:11:13;7.07;;;5.93;;
75061;SDS011;63641;46.526;24.612;2023-09-18T03:13:44;6.28;;;5.68;;
75061;SDS011;63641;46.526;24.612;2023-09-18T03:16:15;7.75;;;5.90;;
75061;SDS011;63641;46.526;24.612;2023-09-18T03:18:42;6.85;;;5.97;;
75061;SDS011;63641;46.526;24.612;2023-09-18T03:21:09;5.82;;;5.22;;
75061;SDS011;63641;46.526;24.612;2023-09-18T03:23:36;6.43;;;5.55;;
75061;SDS011;63641;46.526;24.612;2023-09-18T03:26:03;6.95;;;6.20;;
75061;SDS011;63641;46.526;24.612;2023-09-18T03:28:29;7.18;;;5.93;;
75061;SDS011;63641;46.526;24.612;2023-09-18T03:30:57;9.80;;;6.18;;
75061;SDS011;63641;46.526;24.612;2023-09-18T03:33:24;6.55;;;5.93;;
75061;SDS011;63641;46.526;24.612;2023-09-18T03:35:52;6.90;;;6.30;;
75061;SDS011;63641;46.526;24.612;2023-09-18T03:38:21;7.60;;;5.65;;
75061;SDS011;63641;46.526;24.612;2023-09-18T03:40:48;7.07;;;6.38;;
75061;SDS011;63641;46.526;24.612;2023-09-18T03:43:15;6.57;;;5.97;;
75061;SDS011;63641;46.526;24.612;2023-09-18T03:45:43;6.32;;;5.65;;
75061;SDS011;63641;46.526;24.612;2023-09-18T03:48:10;6.60;;;6.00;;
75061;SDS011;63641;46.526;24.612;2023-09-18T03:50:38;6.40;;;5.80;;
75061;SDS011;63641;46.526;24.612;2023-09-18T03:53:06;6.07;;;5.47;;
75061;SDS011;63641;46.526;24.612;2023-09-18T03:55:33;6.97;;;6.38;;
75061;SDS011;63641;46.526;24.612;2023-09-18T03:58:00;6.70;;;6.10;;
75061;SDS011;63641;46.526;24.612;2023-09-18T04:00:27;6.97;;;6.28;;
75061;SDS011;63641;46.526;24.612;2023-09-18T04:02:54;6.75;;;6.05;;
75061;SDS011;63641;46.526;24.612;2023-09-18T04:05:21;6.88;;;6.28;;
75061;SDS011;63641;46.526;24.612;2023-09-18T04:07:49;7.32;;;6.60;;
75061;SDS011;63641;46.526;24.612;2023-09-18T04:10:16;6.68;;;6.07;;
75061;SDS011;63641;46.526;24.612;2023-09-18T04:12:50;6.55;;;5.95;;
75061;SDS011;63641;46.526;24.612;2023-09-18T04:15:18;6.88;;;6.00;;
75061;SDS011;63641;46.526;24.612;2023-09-18T04:17:46;7.47;;;6.78;;
75061;SDS011;63641;46.526;24.612;2023-09-18T04:20:14;7.72;;;6.93;;
75061;SDS011;63641;46.526;24.612;2023-09-18T04:22:44;6.75;;;6.15;;
75061;SDS011;63641;46.526;24.612;2023-09-18T04:25:16;7.20;;;6.43;;
75061;SDS011;63641;46.526;24.612;2023-09-18T04:27:46;7.22;;;6.53;;
75061;SDS011;63641;46.526;24.612;2023-09-18T04:30:16;7.25;;;6.55;;
75061;SDS011;63641;46.526;24.612;2023-09-18T04:32:44;7.30;;;6.57;;
75061;SDS011;63641;46.526;24.612;2023-09-18T04:35:12;6.20;;;5.70;;
75061;SDS011;63641;46.526;24.612;2023-09-18T04:37:39;6.43;;;5.82;;
75061;SDS011;63641;46.526;24.612;2023-09-18T04:40:06;7.03;;;6.32;;
75061;SDS011;63641;46.526;24.612;2023-09-18T04:42:38;7.50;;;6.13;;
75061;SDS011;63641;46.526;24.612;2023-09-18T04:45:06;6.93;;;5.78;;
75061;SDS011;63641;46.526;24.612;2023-09-18T04:47:34;6.97;;;6.20;;
75061;SDS011;63641;46.526;24.612;2023-09-18T04:50:02;6.43;;;5.82;;
75061;SDS011;63641;46.526;24.612;2023-09-18T04:52:38;6.70;;;6.10;;
75061;SDS011;63641;46.526;24.612;2023-09-18T04:55:07;6.05;;;5.50;;
75061;SDS011;63641;46.526;24.612;2023-09-18T04:57:35;6.70;;;6.00;;
75061;SDS011;63641;46.526;24.612;2023-09-18T05:00:02;7.35;;;6.55;;
75061;SDS011;63641;46.526;24.612;2023-09-18T05:02:43;7.13;;;6.53;;
75061;SDS011;63641;46.526;24.612;2023-09-18T05:05:10;7.40;;;6.45;;
75061;SDS011;63641;46.526;24.612;2023-09-18T05:07:38;7.25;;;6.57;;
75061;SDS011;63641;46.526;24.612;2023-09-18T05:10:05;7.40;;;6.60;;
75061;SDS011;63641;46.526;24.612;2023-09-18T05:12:32;6.95;;;6.18;;
75061;SDS011;63641;46.526;24.612;2023-09-18T05:14:59;9.25;;;8.35;;
75061;SDS011;63641;46.526;24.612;2023-09-18T05:17:45;12.30;;;8.98;;
75061;SDS011;63641;46.526;24.612;2023-09-18T05:20:16;9.32;;;8.43;;
75061;SDS011;63641;46.526;24.612;2023-09-18T05:22:44;9.13;;;8.23;;
75061;SDS011;63641;46.526;24.612;2023-09-18T05:25:12;9.43;;;8.55;;
75061;SDS011;63641;46.526;24.612;2023-09-18T05:27:42;9.10;;;8.20;;
75061;SDS011;63641;46.526;24.612;2023-09-18T05:30:14;9.30;;;8.43;;
75061;SDS011;63641;46.526;24.612;2023-09-18T05:32:42;9.00;;;8.10;;
75061;SDS011;63641;46.526;24.612;2023-09-18T05:35:11;10.68;;;8.75;;
75061;SDS011;63641;46.526;24.612;2023-09-18T05:37:40;10.77;;;8.25;;
75061;SDS011;63641;46.526;24.612;2023-09-18T05:40:08;8.77;;;7.97;;
75061;SDS011;63641;46.526;24.612;2023-09-18T05:42:43;9.05;;;8.15;;
75061;SDS011;63641;46.526;24.612;2023-09-18T05:47:41;8.32;;;7.53;;
75061;SDS011;63641;46.526;24.612;2023-09-18T05:50:09;8.77;;;7.88;;
75061;SDS011;63641;46.526;24.612;2023-09-18T05:52:43;9.17;;;8.37;;
75061;SDS011;63641;46.526;24.612;2023-09-18T05:55:10;9.98;;;8.50;;
75061;SDS011;63641;46.526;24.612;2023-09-18T05:57:38;9.75;;;8.75;;
75061;SDS011;63641;46.526;24.612;2023-09-18T06:00:05;8.52;;;7.70;;
75061;SDS011;63641;46.526;24.612;2023-09-18T06:02:33;8.52;;;7.72;;
75061;SDS011;63641;46.526;24.612;2023-09-18T06:05:00;8.93;;;8.07;;
75061;SDS011;63641;46.526;24.612;2023-09-18T06:07:29;9.23;;;8.40;;
75061;SDS011;63641;46.526;24.612;2023-09-18T06:09:57;8.45;;;7.75;;
75061;SDS011;63641;46.526;24.612;2023-09-18T06:12:24;9.95;;;8.57;;
75061;SDS011;63641;46.526;24.612;2023-09-18T06:14:51;11.77;;;7.60;;
75061;SDS011;63641;46.526;24.612;2023-09-18T06:17:17;8.20;;;7.50;;
75061;SDS011;63641;46.526;24.612;2023-09-18T06:19:45;8.55;;;7.38;;
75061;SDS011;63641;46.526;24.612;2023-09-18T06:22:12;8.52;;;7.63;;
75061;SDS011;63641;46.526;24.612;2023-09-18T06:24:39;9.25;;;8.35;;
75061;SDS011;63641;46.526;24.612;2023-09-18T06:27:06;8.48;;;7.68;;
75061;SDS011;63641;46.526;24.612;2023-09-18T06:29:33;10.00;;;7.75;;
75061;SDS011;63641;46.526;24.612;2023-09-18T06:32:01;9.65;;;7.93;;
75061;SDS011;63641;46.526;24.612;2023-09-18T06:34:28;8.25;;;7.45;;
75061;SDS011;63641;46.526;24.612;2023-09-18T06:36:55;9.68;;;7.05;;
75061;SDS011;63641;46.526;24.612;2023-09-18T06:39:21;8.77;;;6.97;;
75061;SDS011;63641;46.526;24.612;2023-09-18T06:41:50;8.10;;;7.32;;
75061;SDS011;63641;46.526;24.612;2023-09-18T06:44:16;7.47;;;6.78;;
75061;SDS011;63641;46.526;24.612;2023-09-18T06:46:43;7.88;;;7.18;;
75061;SDS011;63641;46.526;24.612;2023-09-18T06:49:10;8.02;;;7.22;;
75061;SDS011;63641;46.526;24.612;2023-09-18T06:51:37;8.20;;;7.25;;
75061;SDS011;63641;46.526;24.612;2023-09-18T06:54:09;6.90;;;6.30;;
75061;SDS011;63641;46.526;24.612;2023-09-18T06:56:36;7.72;;;6.93;;
75061;SDS011;63641;46.526;24.612;2023-09-18T06:59:03;7.47;;;6.88;;
75061;SDS011;63641;46.526;24.612;2023-09-18T07:01:30;7.05;;;6.10;;
75061;SDS011;63641;46.526;24.612;2023-09-18T07:03:58;6.55;;;5.72;;
75061;SDS011;63641;46.526;24.612;2023-09-18T07:06:26;6.90;;;6.35;;
75061;SDS011;63641;46.526;24.612;2023-09-18T07:08:53;6.80;;;5.57;;
75061;SDS011;63641;46.526;24.612;2023-09-18T07:11:21;5.47;;;4.97;;
75061;SDS011;63641;46.526;24.612;2023-09-18T07:13:51;5.13;;;4.68;;
75061;SDS011;63641;46.526;24.612;2023-09-18T07:16:18;5.70;;;5.18;;
75061;SDS011;63641;46.526;24.612;2023-09-18T07:18:45;5.65;;;5.15;;
75061;SDS011;63641;46.526;24.612;2023-09-18T07:21:12;6.60;;;5.85;;
75061;SDS011;63641;46.526;24.612;2023-09-18T07:23:39;5.13;;;4.63;;
75061;SDS011;63641;46.526;24.612;2023-09-18T07:26:07;7.45;;;5.05;;
75061;SDS011;63641;46.526;24.612;2023-09-18T07:28:34;7.20;;;5.00;;
75061;SDS011;63641;46.526;24.612;2023-09-18T07:31:07;5.47;;;4.97;;
75061;SDS011;63641;46.526;24.612;2023-09-18T07:36:02;5.43;;;4.65;;
75061;SDS011;63641;46.526;24.612;2023-09-18T07:38:29;5.65;;;4.80;;
75061;SDS011;63641;46.526;24.612;2023-09-18T07:40:57;5.00;;;4.57;;
75061;SDS011;63641;46.526;24.612;2023-09-18T07:43:24;5.72;;;4.63;;
75061;SDS011;63641;46.526;24.612;2023-09-18T07:45:52;4.97;;;4.57;;
75061;SDS011;63641;46.526;24.612;2023-09-18T07:48:21;6.00;;;4.57;;
75061;SDS011;63641;46.526;24.612;2023-09-18T07:50:49;4.75;;;4.28;;
75061;SDS011;63641;46.526;24.612;2023-09-18T07:53:17;5.25;;;4.50;;
75061;SDS011;63641;46.526;24.612;2023-09-18T07:55:45;4.60;;;4.20;;
75061;SDS011;63641;46.526;24.612;2023-09-18T07:58:12;5.70;;;4.68;;
75061;SDS011;63641;46.526;24.612;2023-09-18T08:00:40;5.10;;;4.13;;
75061;SDS011;63641;46.526;24.612;2023-09-18T08:03:07;4.65;;;4.20;;
75061;SDS011;63641;46.526;24.612;2023-09-18T08:05:33;4.45;;;3.65;;
75061;SDS011;63641;46.526;24.612;2023-09-18T08:08:00;4.68;;;4.28;;
75061;SDS011;63641;46.526;24.612;2023-09-18T08:10:29;6.28;;;4.60;;
75061;SDS011;63641;46.526;24.612;2023-09-18T08:12:55;4.90;;;3.90;;
75061;SDS011;63641;46.526;24.612;2023-09-18T08:15:22;4.60;;;4.20;;
75061;SDS011;63641;46.526;24.612;2023-09-18T08:17:49;5.45;;;4.10;;
75061;SDS011;63641;46.526;24.612;2023-09-18T08:20:16;4.70;;;4.18;;
75061;SDS011;63641;46.526;24.612;2023-09-18T08:22:43;6.15;;;4.05;;
75061;SDS011;63641;46.526;24.612;2023-09-18T08:25:11;4.60;;;4.20;;
75061;SDS011;63641;46.526;24.612;2023-09-18T08:27:39;5.95;;;4.85;;
75061;SDS011;63641;46.526;24.612;2023-09-18T08:30:08;4.20;;;3.58;;
75061;SDS011;63641;46.526;24.612;2023-09-18T08:32:37;4.25;;;3.85;;
75061;SDS011;63641;46.526;24.612;2023-09-18T08:35:05;5.55;;;3.85;;
75061;SDS011;63641;46.526;24.612;2023-09-18T08:37:32;4.38;;;3.83;;
75061;SDS011;63641;46.526;24.612;2023-09-18T08:40:00;4.55;;;3.67;;
75061;SDS011;63641;46.526;24.612;2023-09-18T08:42:28;6.05;;;3.97;;
75061;SDS011;63641;46.526;24.612;2023-09-18T08:44:58;4.50;;;4.10;;
75061;SDS011;63641;46.526;24.612;2023-09-18T08:47:27;4.15;;;3.75;;
75061;SDS011;63641;46.526;24.612;2023-09-18T08:49:54;3.90;;;3.50;;
75061;SDS011;63641;46.526;24.612;2023-09-18T08:52:22;4.28;;;3.92;;
75061;SDS011;63641;46.526;24.612;2023-09-18T08:54:50;4.82;;;4.43;;
75061;SDS011;63641;46.526;24.612;2023-09-18T08:57:18;6.65;;;4.25;;
75061;SDS011;63641;46.526;24.612;2023-09-18T08:59:46;4.07;;;3.50;;
75061;SDS011;63641;46.526;24.612;2023-09-18T09:02:15;4.00;;;3.70;;
75061;SDS011;63641;46.526;24.612;2023-09-18T09:04:42;4.18;;;3.75;;
75061;SDS011;63641;46.526;24.612;2023-09-18T09:07:10;4.10;;;3.80;;
75061;SDS011;63641;46.526;24.612;2023-09-18T09:09:37;3.83;;;3.53;;
75061;SDS011;63641;46.526;24.612;2023-09-18T09:12:05;7.32;;;3.90;;
75061;SDS011;63641;46.526;24.612;2023-09-18T09:14:31;6.00;;;4.00;;
75061;SDS011;63641;46.526;24.612;2023-09-18T09:16:59;3.92;;;3.53;;
75061;SDS011;63641;46.526;24.612;2023-09-18T09:19:29;4.82;;;4.00;;
75061;SDS011;63641;46.526;24.612;2023-09-18T09:22:03;7.97;;;3.80;;
75061;SDS011;63641;46.526;24.612;2023-09-18T09:24:39;5.20;;;3.88;;
75061;SDS011;63641;46.526;24.612;2023-09-18T09:27:10;4.85;;;3.53;;
75061;SDS011;63641;46.526;24.612;2023-09-18T09:29:37;4.97;;;3.60;;
75061;SDS011;63641;46.526;24.612;2023-09-18T09:32:16;6.15;;;3.97;;
75061;SDS011;63641;46.526;24.612;2023-09-18T09:34:44;3.90;;;3.33;;
75061;SDS011;63641;46.526;24.612;2023-09-18T09:37:12;3.97;;;3.15;;
75061;SDS011;63641;46.526;24.612;2023-09-18T09:39:46;5.63;;;3.75;;
75061;SDS011;63641;46.526;24.612;2023-09-18T09:42:17;3.90;;;3.60;;
75061;SDS011;63641;46.526;24.612;2023-09-18T09:45:02;4.93;;;3.58;;
75061;SDS011;63641;46.526;24.612;2023-09-18T09:47:34;3.83;;;3.53;;
75061;SDS011;63641;46.526;24.612;2023-09-18T09:50:05;7.25;;;3.25;;
75061;SDS011;63641;46.526;24.612;2023-09-18T09:52:42;5.30;;;3.20;;
75061;SDS011;63641;46.526;24.612;2023-09-18T09:55:23;3.83;;;3.20;;
75061;SDS011;63641;46.526;24.612;2023-09-18T09:57:59;4.78;;;3.80;;
75061;SDS011;63641;46.526;24.612;2023-09-18T10:00:31;3.58;;;3.25;;
75061;SDS011;63641;46.526;24.612;2023-09-18T10:03:04;4.15;;;3.75;;
75061;SDS011;63641;46.526;24.612;2023-09-18T10:05:35;4.57;;;3.40;;
75061;SDS011;63641;46.526;24.612;2023-09-18T10:08:13;3.88;;;3.30;;
75061;SDS011;63641;46.526;24.612;2023-09-18T10:10:45;5.10;;;3.30;;
75061;SDS011;63641;46.526;24.612;2023-09-18T10:13:18;5.47;;;3.20;;
75061;SDS011;63641;46.526;24.612;2023-09-18T10:16:04;3.72;;;3.42;;
75061;SDS011;63641;46.526;24.612;2023-09-18T10:26:57;3.65;;;3.35;;
75061;SDS011;63641;46.526;24.612;2023-09-18T10:29:25;5.85;;;3.55;;
75061;SDS011;63641;46.526;24.612;2023-09-18T10:31:53;4.13;;;3.60;;
75061;SDS011;63641;46.526;24.612;2023-09-18T10:34:21;4.03;;;3.60;;
75061;SDS011;63641;46.526;24.612;2023-09-18T10:36:50;3.60;;;3.30;;
75061;SDS011;63641;46.526;24.612;2023-09-18T10:39:18;3.42;;;3.13;;
75061;SDS011;63641;46.526;24.612;2023-09-18T10:41:53;3.30;;;3.00;;
75061;SDS011;63641;46.526;24.612;2023-09-18T10:44:23;3.50;;;3.20;;
75061;SDS011;63641;46.526;24.612;2023-09-18T10:46:50;3.40;;;2.90;;
75061;SDS011;63641;46.526;24.612;2023-09-18T10:49:19;3.85;;;3.22;;
75061;SDS011;63641;46.526;24.612;2023-09-18T10:51:46;4.32;;;3.92;;
75061;SDS011;63641;46.526;24.612;2023-09-18T10:54:20;6.22;;;4.55;;
75061;SDS011;63641;46.526;24.612;2023-09-18T10:56:48;3.40;;;2.90;;
75061;SDS011;63641;46.526;24.612;2023-09-18T10:59:15;5.28;;;2.92;;
75061;SDS011;63641;46.526;24.612;2023-09-18T11:01:46;3.25;;;2.95;;
75061;SDS011;63641;46.526;24.612;2023-09-18T11:04:17;3.55;;;2.83;;
75061;SDS011;63641;46.526;24.612;2023-09-18T11:09:25;12.23;;;3.50;;
75061;SDS011;63641;46.526;24.612;2023-09-18T11:11:54;4.40;;;2.75;;
75061;SDS011;63641;46.526;24.612;2023-09-18T11:17:29;6.20;;;3.08;;
75061;SDS011;63641;46.526;24.612;2023-09-18T11:23:09;2.80;;;2.58;;
75061;SDS011;63641;46.526;24.612;2023-09-18T11:25:43;3.75;;;2.80;;
75061;SDS011;63641;46.526;24.612;2023-09-18T11:28:15;2.85;;;2.47;;
75061;SDS011;63641;46.526;24.612;2023-09-18T11:30:51;4.00;;;2.55;;
75061;SDS011;63641;46.526;24.612;2023-09-18T11:33:30;2.65;;;2.45;;
75061;SDS011;63641;46.526;24.612;2023-09-18T11:36:28;4.00;;;2.75;;
75061;SDS011;63641;46.526;24.612;2023-09-18T11:38:51;3.03;;;2.58;;
75061;SDS011;63641;46.526;24.612;2023-09-18T11:41:25;2.55;;;2.35;;
75061;SDS011;63641;46.526;24.612;2023-09-18T11:46:46;3.45;;;2.92;;
75061;SDS011;63641;46.526;24.612;2023-09-18T11:49:24;3.05;;;2.20;;
75061;SDS011;63641;46.526;24.612;2023-09-18T11:51:54;2.88;;;2.40;;
75061;SDS011;63641;46.526;24.612;2023-09-18T11:54:24;2.80;;;2.40;;
75061;SDS011;63641;46.526;24.612;2023-09-18T11:56:51;4.00;;;2.40;;
75061;SDS011;63641;46.526;24.612;2023-09-18T11:59:18;2.85;;;2.65;;
75061;SDS011;63641;46.526;24.612;2023-09-18T12:02:01;3.83;;;2.28;;
75061;SDS011;63641;46.526;24.612;2023-09-18T12:04:32;3.25;;;2.40;;
75061;SDS011;63641;46.526;24.612;2023-09-18T12:06:59;2.83;;;2.63;;
75061;SDS011;63641;46.526;24.612;2023-09-18T12:09:27;13.43;;;3.03;;
75061;SDS011;63641;46.526;24.612;2023-09-18T12:11:53;2.97;;;2.65;;
75061;SDS011;63641;46.526;24.612;2023-09-18T12:14:22;5.40;;;2.72;;
75061;SDS011;63641;46.526;24.612;2023-09-18T12:16:49;2.60;;;2.35;;
75061;SDS011;63641;46.526;24.612;2023-09-18T12:19:17;2.83;;;2.55;;
75061;SDS011;63641;46.526;24.612;2023-09-18T12:21:47;4.03;;;2.53;;
75061;SDS011;63641;46.526;24.612;2023-09-18T12:24:15;3.80;;;3.50;;
75061;SDS011;63641;46.526;24.612;2023-09-18T12:26:47;3.60;;;3.30;;
75061;SDS011;63641;46.526;24.612;2023-09-18T12:29:14;3.95;;;2.50;;
75061;SDS011;63641;46.526;24.612;2023-09-18T12:31:41;2.53;;;2.33;;
75061;SDS011;63641;46.526;24.612;2023-09-18T12:34:18;2.67;;;2.38;;
75061;SDS011;63641;46.526;24.612;2023-09-18T12:36:47;3.50;;;2.20;;
75061;SDS011;63641;46.526;24.612;2023-09-18T12:39:16;3.72;;;2.30;;
75061;SDS011;63641;46.526;24.612;2023-09-18T12:41:43;3.08;;;2.78;;
75061;SDS011;63641;46.526;24.612;2023-09-18T12:44:10;2.50;;;2.30;;
75061;SDS011;63641;46.526;24.612;2023-09-18T12:46:38;2.42;;;2.22;;
75061;SDS011;63641;46.526;24.612;2023-09-18T12:49:15;2.30;;;2.10;;
75061;SDS011;63641;46.526;24.612;2023-09-18T12:51:43;2.42;;;1.98;;
75061;SDS011;63641;46.526;24.612;2023-09-18T12:54:10;2.45;;;1.85;;
75061;SDS011;63641;46.526;24.612;2023-09-18T12:56:40;2.80;;;2.10;;
75061;SDS011;63641;46.526;24.612;2023-09-18T12:59:08;3.25;;;2.20;;
75061;SDS011;63641;46.526;24.612;2023-09-18T13:01:45;2.40;;;2.20;;
75061;SDS011;63641;46.526;24.612;2023-09-18T13:04:14;3.10;;;2.10;;
75061;SDS011;63641;46.526;24.612;2023-09-18T13:06:41;2.70;;;2.25;;
75061;SDS011;63641;46.526;24.612;2023-09-18T13:09:14;2.20;;;2.05;;
75061;SDS011;63641;46.526;24.612;2023-09-18T13:17:26;2.83;;;2.33;;
75061;SDS011;63641;46.526;24.612;2023-09-18T13:19:53;3.85;;;2.40;;
75061;SDS011;63641;46.526;24.612;2023-09-18T13:22:26;2.35;;;2.15;;
75061;SDS011;63641;46.526;24.612;2023-09-18T13:24:56;2.20;;;2.00;;
75061;SDS011;63641;46.526;24.612;2023-09-18T13:27:23;2.15;;;2.00;;
75061;SDS011;63641;46.526;24.612;2023-09-18T13:29:51;2.85;;;2.33;;
75061;SDS011;63641;46.526;24.612;2023-09-18T13:32:20;3.88;;;2.08;;
75061;SDS011;63641;46.526;24.612;2023-09-18T13:34:47;2.42;;;2.10;;
75061;SDS011;63641;46.526;24.612;2023-09-18T13:37:14;2.88;;;2.55;;
75061;SDS011;63641;46.526;24.612;2023-09-18T13:39:43;3.58;;;1.98;;
75061;SDS011;63641;46.526;24.612;2023-09-18T13:42:11;2.80;;;2.05;;
75061;SDS011;63641;46.526;24.612;2023-09-18T13:44:38;2.50;;;2.30;;
75061;SDS011;63641;46.526;24.612;2023-09-18T13:47:05;6.10;;;2.10;;
75061;SDS011;63641;46.526;24.612;2023-09-18T13:49:32;4.15;;;2.50;;
75061;SDS011;63641;46.526;24.612;2023-09-18T13:51:59;5.72;;;2.50;;
75061;SDS011;63641;46.526;24.612;2023-09-18T13:54:26;3.35;;;2.80;;
75061;SDS011;63641;46.526;24.612;2023-09-18T13:56:53;4.90;;;2.88;;
75061;SDS011;63641;46.526;24.612;2023-09-18T13:59:23;2.53;;;2.33;;
75061;SDS011;63641;46.526;24.612;2023-09-18T14:01:50;3.00;;;2.58;;
75061;SDS011;63641;46.526;24.612;2023-09-18T14:04:18;2.92;;;2.40;;
75061;SDS011;63641;46.526;24.612;2023-09-18T14:06:45;8.77;;;2.50;;
75061;SDS011;63641;46.526;24.612;2023-09-18T14:09:12;4.15;;;2.58;;
75061;SDS011;63641;46.526;24.612;2023-09-18T14:11:39;3.15;;;2.47;;
75061;SDS011;63641;46.526;24.612;2023-09-18T14:14:06;4.45;;;2.60;;
75061;SDS011;63641;46.526;24.612;2023-09-18T14:16:33;4.43;;;2.63;;
75061;SDS011;63641;46.526;24.612;2023-09-18T14:19:00;2.97;;;2.67;;
75061;SDS011;63641;46.526;24.612;2023-09-18T14:21:26;4.82;;;2.80;;
75061;SDS011;63641;46.526;24.612;2023-09-18T14:23:55;2.92;;;2.53;;
75061;SDS011;63641;46.526;24.612;2023-09-18T14:26:22;3.55;;;2.50;;
75061;SDS011;63641;46.526;24.612;2023-09-18T14:28:49;3.63;;;2.72;;
75061;SDS011;63641;46.526;24.612;2023-09-18T14:31:16;3.67;;;2.80;;
75061;SDS011;63641;46.526;24.612;2023-09-18T14:33:43;3.15;;;2.42;;
75061;SDS011;63641;46.526;24.612;2023-09-18T14:36:09;3.03;;;2.72;;
75061;SDS011;63641;46.526;24.612;2023-09-18T14:38:36;2.83;;;2.50;;
75061;SDS011;63641;46.526;24.612;2023-09-18T14:41:05;4.28;;;2.75;;
75061;SDS011;63641;46.526;24.612;2023-09-18T14:43:33;3.05;;;2.85;;
75061;SDS011;63641;46.526;24.612;2023-09-18T14:46:00;4.20;;;3.05;;
75061;SDS011;63641;46.526;24.612;2023-09-18T14:48:29;7.07;;;2.80;;
75061;SDS011;63641;46.526;24.612;2023-09-18T14:50:57;4.05;;;2.08;;
75061;SDS011;63641;46.526;24.612;2023-09-18T14:53:24;9.57;;;2.65;;
75061;SDS011;63641;46.526;24.612;2023-09-18T14:55:50;11.52;;;10.32;;
75061;SDS011;63641;46.526;24.612;2023-09-18T14:58:17;19.40;;;14.73;;
75061;SDS011;63641;46.526;24.612;2023-09-18T15:00:48;20.20;;;15.98;;
75061;SDS011;63641;46.526;24.612;2023-09-18T15:03:16;50.45;;;35.67;;
75061;SDS011;63641;46.526;24.612;2023-09-18T15:05:43;5.13;;;4.30;;
75061;SDS011;63641;46.526;24.612;2023-09-18T15:08:09;5.72;;;3.88;;
75061;SDS011;63641;46.526;24.612;2023-09-18T15:10:36;3.65;;;2.83;;
75061;SDS011;63641;46.526;24.612;2023-09-18T15:13:03;3.50;;;3.20;;
75061;SDS011;63641;46.526;24.612;2023-09-18T15:15:31;3.10;;;2.90;;